Terminal Aerodrome Forecast
Issued by NWS

Home | Current Version | Previous Version | Text Only | Print | Product List | Glossary On
Versions: 1 2 3 4 5 6 7 8 9 10 11 12 13 14
548
FTUS44 KLZK 251120
TAFHOT
TAF
KHOT 251120Z 2512/2612 VRB03KT 4SM BR FEW040 SCT250
      TEMPO 2512/2514 2SM BR BKN001
     FM251400 14006KT P6SM FEW040
     FM251900 15009KT P6SM SCT040 BKN100=

USA.gov is the U.S. government's official web portal to all federal, state and local government web resources and services.